Borups Racing travhäst

Här hittar du V75 tips och andra gratis travtips för kommande lopp med Borups Racing travhäst. Samt statistik och resultat för senaste loppen som hästen Borups Racing har tävlat i.

Aktuella/kommande tävlingsdagar

Datum Datum/bana/lopp Kusk Distans/spår Rank
Borups Racing har inga kommande starter..

Nyheter för travhäst Borups Racing


Wilma Karlsson är formstark i sulkyn och hon gjorde allt rätt när hon dominerade ungdomsloppet GS75-2 i spets tillsammans med favoriten Giovanna ..


Wilma Karlsson är formstark i sulkyn och hon gjorde allt rätt när hon dominerade ungdomsloppet GS75-2 i spets tillsammans med favoriten Giovanna Coger. Det var 20-åringens fjärde seger på de fem senaste starterna. Fredrik Persson tränar vinnaren.
Ledning från start till mål blev det även i GS75-6 där Stefan Persson var bestämd och dominerade i spets tillsammans med Eton Degato. Lars I Nilsson tränar vinnaren.
I GS75-1 svarade favoriten Crown Wise As för en mycket fin årsdebut och trots att han gynnades av att det var högt tempo i täten så var det i imponerade stil han avgjorde efter att Johan Untersteiner kört fram utvändigt ledaren på sista bortre långsidan.
- Redan i värmningen fick jag bra feeling då han studsade fram, sa Johan Untersteiner.

Bara tre felfria
GS75-3 blev rumphugget och A Fair Day var bara bäst av de tre hästarna som gick felfritt.
Oscar Ginman körde fram i rygg på ledaren Candle T.T. 1 200 meter kvar och sedan avgjorde A Fair Day genom slutsvängen där han ganska bekvämt kopplade greppet. Elisabeth Almheden tränar fyraåringen.
I GS75-4 var Borups Racing starkast till slut och med förstapriset på 40 000 kronor klev nioåringen över en miljon intjänat via 80 starter i karriären. Ken Ecce satt i segersulkyn och valacken tränas av Johan Anderberg.
- Det är en milstolpe. Det är första miljonären för mig och det är speciellt, jätteroligt. Hästen har aldrig varit bättre än nu som nioåring, sa Johan Anderberg.

Skräll av Kung Bertil
Söndagens skäll kom i GS75-5 där 36-oddsaren Kung Bertil överraskade de flesta när han ganska enkelt kunde kliva förbi Ottens Juvel som kom in mot upploppet i ledningen. Victor Rosleff skötte tömmarna bakom vinnaren som tränas av Linda Gustafsson. Segern var den första i 13:e starten för Kung Bertil.
- Vi har ändrat lite i träningen och kört honom i backe sedan i januari, avslöjade tränaren.
I GS75-7 stumnade Zola Love i spets och det krävdes målfoto för att konstatera att hon trots allt fick nosen först i duell med Bolla Spiritz. Kim Eriksson körde och Thomas Madsen tränar vinnaren som fastställde utdelningen på sju rätt på GS75 till 213 238 kronor till 18 vinnare. Sex rätt gav 953 kronor och fem rätt 81 kronor.

Lars-Ove Pettersson, Kanal 75


Inledningen blev tung innan B.B.S.Solarsystem kom fram utvändigt ledaren. Phantasy Tile stred tappert i täten, men orkade inte hålla emot kort f..


Inledningen blev tung innan B.B.S.Solarsystem kom fram utvändigt ledaren. Phantasy Tile stred tappert i täten, men orkade inte hålla emot kort före mål.
Lägg namnet Crank på minnet.
I sin andra start för Robert Bergh imponerade hästen stort. Trots att Crank tappade mycket på en startgalopp och fick gå ett tufft slutvarv var han överlägsen.
- Jag fick en härlig känsla i provstarten. Det har varit en svår resa, men det håller på att bli bra, sade Robert Bergh.
Även Johan Anderbergs Borups Racing imponerade. Varvet före mål avancerade Kevin Oscarsson framåt och Borups Racing pressade sig till ledningen 500 meter före mål och kämpade upploppet ner och det höll hela vägen in i mål.
- Till alla som frågade sa jag att han skulle vinna, sade Johan Anderberg.
Sex rätt betalade 3 919 kronor, fem rätt 101 kronor och fyra rätt 15 kronor.

Joakim Brundin, Kanal 75

Tidigare tävlingsdagar

Datum Datum/bana/lopp Kusk Distans/spår Rank Plac. Tid Odds
2018-12-27 2018-12-27 Jägersro Trav-6 Jörgen Sjunnesson 2140/2 D 2 16.6g 73
2018-12-07 2018-12-07 Kalmar-4 Johan Untersteiner 1640/3 B str
2018-11-23 2018-11-23 Kalmar-10 Jörgen Sjunnesson 1640/5 C 2 14.3 37
2018-10-31 2018-10-31 Jägersro Trav-4 Jörgen Sjunnesson 2140/2 D 0 19.8g 194
2018-10-22 2018-10-22 Halmstad-11 Frank Nilsson 2640/6 C 2 17.7 42
2018-10-11 2018-10-11 Åby-9 Stefan Söderkvist 2640/6 C 0 g 34
2018-09-25 2018-09-25 Jägersro Trav-8 Thomas Uhrberg 2140/3 C 2 15.8 41
2018-07-23 2018-07-23 Åby-6 Stefan Söderkvist 2140/10 C 0 16.8g 116
2018-07-12 2018-07-12 Halmstad-1 Thomas Uhrberg 2140/9 C 0 19.0g 30
2018-06-05 2018-06-05 Jägersro Trav-1 Thomas Uhrberg 2140/10 B 1 17.2 156
2018-05-29 2018-05-29 Jägersro Trav-2 Thomas Uhrberg 2140/7 B 6 17.1 30
2018-05-18 2018-05-18 Jägersro Trav-8 Stefan Söderkvist 2140/10 C 0 g 103
2018-04-29 2018-04-29 Vaggeryd-1 Thomas Uhrberg 2140/2 C 3 17.9 20
2018-04-12 2018-04-12 Åby-1 Roger Malmqvist 2140/4 C 0 g 71
2019-12-07 2019-12-07 Åby-6 Kevin Oscarsson 1640/8 B 7 13.4 454
2019-11-23 2019-11-23 Jägersro Trav-7 Jörgen Sjunnesson 2640/10 A 0 g 91
2019-11-06 2019-11-06 Åby-9 Kevin Oscarsson 2640/8 B 3 14.8 103
2019-09-20 2019-09-20 Kalmar-7 Jörgen Sjunnesson 3140/3 D 2 15.2 119
2019-08-31 2019-08-31 Jägersro Trav-6 Jörgen Sjunnesson 1640/9 B 3 11.8 60
2019-08-13 2019-08-13 Jägersro Trav-9 Kevin Oscarsson 2140/2 B 1 13.0 78
2019-07-26 2019-07-26 Halmstad-9 Jörgen Sjunnesson 2160/9 B 1 14.7 46
2019-07-15 2019-07-15 Halmstad-4 Linda Allercrantz 1640/11 B 3 13.2 42
2019-06-30 2019-06-30 Tingsryd-4 Linda Allercrantz 1609/2 B 3 13.5 53
2019-05-03 2019-05-03 Kalmar-7 Jörgen Sjunnesson 3140/4 D 3 17.6 151
2019-04-15 2019-04-15 Halmstad-5 Frank Nilsson 1640/6 C 0 16.4g 25
2019-04-01 2019-04-01 Halmstad-4 Frank Nilsson 2640/8 C 2 16.7 33
2019-02-20 2019-02-20 Jägersro Trav-4 Frank Nilsson 2160/2 D 0 17.0g 81
2019-02-12 2019-02-12 Jägersro Trav-8 Thomas Uhrberg 3140/1 D 0 g 219
2019-01-30 2019-01-30 Jägersro Trav-9 Thomas Uhrberg 2140/2 D 3 15.8 233
2019-01-12 2019-01-12 Jägersro Trav-2 Jörgen Sjunnesson 2140/3 C 4 15.6 132
2020-12-28 2020-12-28 Halmstad-3 Jörgen Sjunnesson 2140/12 A 2 16.0g 59
2020-12-15 2020-12-15 Jägersro Trav-1 Jörgen Sjunnesson 2140/3 A 3 14.0 238
2020-12-04 2020-12-04 Kalmar-7 Kevin Oscarsson 1640/8 A 0 14.1g 160
2020-11-26 2020-11-26 Jägersro Trav-4 Jörgen Sjunnesson 2140/10 B 0 14.7 222
2020-09-25 2020-09-25 Jägersro Trav-5 Marc Elias 2640/5 B 6 15.9 88
2020-09-06 2020-09-06 Jägersro Trav-6 Kevin Oscarsson 3160/7 C 6 15.6 196
2020-08-18 2020-08-18 Jägersro Trav-4 Kevin Oscarsson 2160/11 A 3 14.6g 29
2020-08-04 2020-08-04 Jägersro Trav-6 Kevin Oscarsson 1640/10 C 4 12.3 60
2020-07-17 2020-07-17 Axevalla-8 Kevin Oscarsson 2160/13 C 8 14.4 243
2020-07-02 2020-07-02 Halmstad-13 Kevin Oscarsson 3140/4 D 0 16.8g 1178
2020-06-16 2020-06-16 Jägersro Trav-4 Kevin Oscarsson 2160/14 A 5 14.8 35
2020-05-18 2020-05-18 Halmstad-10 Kevin Oscarsson 2180/13 A 1 14.7 37
2020-05-05 2020-05-05 Jägersro Trav-6 Frank Nilsson 2160/8 B 1 15.2 70
2020-04-06 2020-04-06 Halmstad-5 Kevin Oscarsson 2160/5 A str
2020-02-05 2020-02-05 Jägersro Trav-8 Kevin Oscarsson 3160/9 A 0 16.5 179
2021-12-26 2021-12-26 Solvalla-12 Magnus A Djuse 2140/8 B 0 g 281
2021-12-11 2021-12-11 Åby-5 Ken Ecce 2140/11 B 3 14.7 301
2021-11-30 2021-11-30 Jägersro Trav-6 Ken Ecce 2180/15 A 1 14.1 56
2021-11-20 2021-11-20 Jägersro Trav-10 Johnny Takter 2640/6 C 3 13.9 524
2021-10-30 2021-10-30 Jägersro Trav-7 Erik Adielsson 2140/7 C 8 13.3 115
2021-10-10 2021-10-10 Charlottenlund-10 Ken Ecce 2000/1 B 1 62
2021-09-24 2021-09-24 Charlottenlund-6 Ken Ecce 2020/8 C 1 64
2021-09-14 2021-09-14 Jägersro Trav-6 Kevin Oscarsson 2180/7 C 3 13.9 105
2021-08-26 2021-08-26 Kalmar-6 Kevin Oscarsson 1640/6 C 7 12.1 385
2021-08-15 2021-08-15 Tingsryd-9 Marc Elias 1609/11 C 6 11.5 804
2021-07-03 2021-07-03 Vaggeryd-9 Markus Waldmüller 2660/12 A 5 16.7 88
2021-06-15 2021-06-15 Jägersro Trav-5 Kevin Oscarsson 2160/7 C 6 14.0 128
2021-05-31 2021-05-31 Halmstad-8 Kevin Oscarsson 2140/1 B 4 13.2 119
2021-05-18 2021-05-18 Jägersro Trav-8 Kevin Oscarsson 2160/13 A 2 15.5 45
2021-05-04 2021-05-04 Jägersro Trav-4 Peter Untersteiner 2640/3 B 5 15.2 149
2021-04-24 2021-04-24 Halmstad-4 Kevin Oscarsson 2180/14 A 0 g 660
2021-04-10 2021-04-10 Jägersro Trav-10 Björn Goop 2140/7 B 4 12.9 374
2021-03-30 2021-03-30 Jägersro Trav-8 Kevin Oscarsson 3160/5 C 3 15.1 132
2021-03-08 2021-03-08 Halmstad-8 Kevin Oscarsson 2180/9 C 1 14.1 96
2021-02-24 2021-02-24 Jägersro Trav-9 Kevin Oscarsson 1640/4 D 0 g 495
2021-01-19 2021-01-19 Jägersro Trav-4 Peter Untersteiner 1640/8 C str
2022-12-07 2022-12-07 Jägersro Trav-4 Ken Ecce 2140/6 C str
2022-11-15 2022-11-15 Jägersro Trav-8 Ken Ecce 2180/13 A 7 14.8 110
2022-11-01 2022-11-01 Halmstad-2 Ken Ecce 2180/15 B 3 13.9 174
2022-10-24 2022-10-24 Halmstad-9 Ken Ecce 2180/9 C 4 14.2 423
2022-09-28 2022-09-28 Jägersro Trav-6 Ken Ecce 1640/8 D 0 12.3 740
2022-09-10 2022-09-10 Halmstad-9 Ken Ecce 2180/10 A 8 15.2 32
2022-06-14 2022-06-14 Jägersro Trav-6 Ken Ecce 2160/10 A 0 14.9 26
2022-05-22 2022-05-22 Tingsryd-9 Ken Ecce 1609/6 A 0 g 199
2022-05-03 2022-05-03 Jägersro Trav-4 Ken Ecce 2140/8 B 2 13.8 112
2022-04-12 2022-04-12 Jägersro Trav-7 Ken Ecce 2180/10 A 1 14.6 39
2022-03-23 2022-03-23 Åby-9 Ken Ecce 3160/8 C 0 15.3 62
2022-03-05 2022-03-05 Kalmar-5 Ken Ecce 2640/1 C 5 14.7 161
2022-02-23 2022-02-23 Jägersro Trav-9 Ken Ecce 2660/9 C 0 19.0g 163
2022-02-08 2022-02-08 Jägersro Trav-4 Ken Ecce 1640/3 B 0 g 59
2023-12-05 2023-12-05 Jägersro Trav-4 Gustav Johansson 3180/5 D 0 17.6 210
2023-11-27 2023-11-27 Halmstad-7 Ken Ecce 2160/9 B 0 g 283
2023-09-22 2023-09-22 Kalmar-9 André Eklundh 3200/14 C 0 16.8 612
2023-07-19 2023-07-19 Karlshamn-4 Ken Ecce 2480/9 C 0 17.5 109
2023-04-30 2023-04-30 Danmark-9 Ken Ecce 2060/10 B 0 39
2023-04-22 2023-04-22 Jägersro Trav-11 Ken Ecce 2140/12 C 7 12.9 722
2023-04-02 2023-04-02 Kalmar-7 Ken Ecce 2700/11 B 1 14.4 91
2023-03-23 2023-03-23 Jägersro Trav-2 Ken Ecce 2140/8 B 1 13.1 50
2023-03-09 2023-03-09 Åby-9 Ken Ecce 2140/8 B 5 14.2 83
2023-02-17 2023-02-17 Charlottenlund-6 Ken Ecce 2000/9 C 1 104
2024-03-20 2024-03-20 Åby-7 Ken Ecce 2180/13 B 0 15.8 202
2024-02-27 2024-02-27 Jägersro Trav-4 Ken Ecce 2140/12 C str
2024-02-14 2024-02-14 Jägersro Trav-4 Stephanie J Werder 1640/9 C 6 14.0 267
2024-01-30 2024-01-30 Jägersro Trav-5 Lee Nimåker 2180/11 B 5 15.8 462



ATG (Aktiebolaget Trav och Galopp) är inte innehavare till Gratistravtips.se, utan förser oss enbart med data om aktuella startlistor, hästar, tränare och kuskar.
Denna information tillhandahålls enligt samarbetsavtal med ATG. Samtliga rättigheter tillhör ATG. Inga bilder, texter eller sammanställd information, eller utdrag därav, får användas för kommersiellt bruk eller i övrigt i strid mot reglerna i lag (1960:729) om upphovsrätt till litterära och konstnärliga verk.
Gratistravtips.se har ett aktivt samarbetsavtal med Svenska Spel Sport & Casino AB samt AB Svenska Spel och marknadsför deras produkter.
Spel för dig som fyllt 18 år
Spelproblem? Ring Stödlinjen på 020-81 91 00 eller besök Stödlinjens hemsida: www.stodlinjen.se. Du kan även testa dina spelvanor på: Spelalagom.se